createdAt,value
2023-01-19T00:02:22.098Z,3.50
2023-01-19T00:06:07.970Z,3.60
2023-01-19T00:09:49.926Z,3.90
2023-01-19T00:13:31.968Z,3.75
2023-01-19T00:17:13.976Z,3.27
2023-01-19T00:20:56.015Z,3.47
2023-01-19T00:24:37.964Z,3.38
2023-01-19T00:28:20.079Z,3.33
2023-01-19T00:32:03.786Z,3.40
2023-01-19T00:35:45.792Z,3.58
2023-01-19T00:39:27.713Z,3.75
2023-01-19T00:43:09.760Z,3.30
2023-01-19T00:46:51.740Z,3.50
2023-01-19T00:50:34.241Z,2.92
2023-01-19T00:54:16.220Z,2.70
2023-01-19T00:57:58.837Z,3.40
2023-01-19T01:01:45.567Z,3.50
2023-01-19T01:05:28.502Z,3.27
2023-01-19T01:09:13.651Z,2.92
2023-01-19T01:12:58.674Z,3.30
2023-01-19T01:16:41.867Z,3.10
2023-01-19T01:20:28.143Z,2.87
2023-01-19T01:24:10.578Z,3.25
2023-01-19T01:27:53.456Z,3.03
2023-01-19T01:31:35.586Z,2.90
2023-01-19T01:35:17.782Z,2.88
2023-01-19T01:39:00.387Z,3.53
2023-01-19T01:42:43.088Z,3.70
2023-01-19T01:46:27.735Z,3.70
2023-01-19T01:50:20.785Z,3.88
2023-01-19T01:54:02.703Z,3.78
2023-01-19T01:57:50.331Z,3.97
2023-01-19T02:01:51.028Z,3.60
2023-01-19T02:05:37.522Z,3.60
2023-01-19T02:09:38.371Z,3.60
2023-01-19T02:13:21.361Z,3.95
2023-01-19T02:17:04.188Z,3.47
2023-01-19T02:20:58.025Z,3.40
2023-01-19T02:24:40.189Z,3.42
2023-01-19T02:28:22.171Z,4.07
2023-01-19T02:32:05.880Z,3.40
2023-01-19T02:35:51.217Z,2.97
2023-01-19T02:39:42.956Z,3.55
2023-01-19T02:43:26.325Z,3.22
2023-01-19T02:47:08.317Z,3.80
2023-01-19T02:51:04.290Z,3.50
2023-01-19T02:55:08.716Z,3.60
2023-01-19T02:59:13.504Z,3.33
2023-01-19T03:03:27.131Z,4.00
2023-01-19T03:07:18.398Z,4.53
2023-01-19T03:11:13.987Z,4.93
2023-01-19T03:15:01.260Z,5.67
2023-01-19T03:18:47.144Z,5.18
2023-01-19T03:22:30.332Z,4.95
2023-01-19T03:26:16.616Z,6.03
2023-01-19T03:30:07.945Z,6.20
2023-01-19T03:33:54.501Z,5.97
2023-01-19T03:37:42.683Z,5.77
2023-01-19T03:41:26.068Z,5.82
2023-01-19T03:45:09.271Z,5.90
2023-01-19T03:48:51.911Z,5.85
2023-01-19T03:52:33.922Z,5.13
2023-01-19T03:56:24.372Z,6.60
2023-01-19T04:00:06.975Z,5.43
2023-01-19T04:03:50.586Z,5.40
2023-01-19T04:07:33.164Z,5.78
2023-01-19T04:11:15.568Z,5.43
2023-01-19T04:14:57.469Z,6.10
2023-01-19T04:18:40.893Z,5.55
2023-01-19T04:22:22.862Z,6.15
2023-01-19T04:26:07.099Z,6.30
2023-01-19T04:29:49.059Z,5.73
2023-01-19T04:33:31.320Z,5.25
2023-01-19T04:37:13.447Z,5.50
2023-01-19T04:40:55.561Z,5.90
2023-01-19T04:44:37.557Z,5.82
2023-01-19T04:48:19.939Z,5.50
2023-01-19T04:52:02.069Z,6.57
2023-01-19T04:55:44.321Z,5.38
2023-01-19T04:59:26.327Z,4.88
2023-01-19T05:03:08.348Z,5.50
2023-01-19T05:06:50.544Z,5.83
2023-01-19T05:10:32.435Z,5.50
2023-01-19T05:14:14.754Z,5.45
2023-01-19T05:17:58.140Z,5.23
2023-01-19T05:21:40.085Z,5.13
2023-01-19T05:25:22.053Z,4.63
2023-01-19T05:29:04.014Z,4.93
2023-01-19T05:32:45.988Z,5.25
2023-01-19T05:36:28.116Z,5.00
2023-01-19T05:40:10.967Z,5.32
2023-01-19T05:43:52.945Z,4.90
2023-01-19T05:47:34.848Z,5.43
2023-01-19T05:51:17.141Z,5.35
2023-01-19T05:54:59.264Z,4.70
2023-01-19T05:58:41.200Z,6.13
2023-01-19T06:02:28.744Z,6.05
2023-01-19T06:06:11.698Z,5.60
2023-01-19T06:09:53.592Z,5.22
2023-01-19T06:13:35.576Z,5.43
2023-01-19T06:17:17.549Z,4.97
2023-01-19T06:20:59.569Z,5.13
2023-01-19T06:24:41.542Z,5.00
2023-01-19T06:28:23.748Z,5.88
2023-01-19T06:32:06.146Z,5.63
2023-01-19T06:35:49.904Z,5.28
2023-01-19T06:39:31.828Z,6.05
2023-01-19T06:43:13.796Z,5.83
2023-01-19T06:47:15.416Z,5.57
2023-01-19T06:50:59.531Z,5.90
2023-01-19T06:54:43.492Z,5.32
2023-01-19T06:58:31.011Z,5.67
2023-01-19T07:02:27.257Z,5.25
2023-01-19T07:06:10.382Z,5.07
2023-01-19T07:09:53.995Z,4.10
2023-01-19T07:13:37.678Z,5.07
2023-01-19T07:17:19.760Z,5.25
2023-01-19T07:21:02.345Z,5.10
2023-01-19T07:24:44.425Z,4.93
2023-01-19T07:28:26.781Z,5.10
2023-01-19T07:32:09.247Z,4.85
2023-01-19T07:35:52.558Z,5.87
2023-01-19T07:39:36.721Z,5.78
2023-01-19T07:43:18.825Z,5.00
2023-01-19T07:47:01.403Z,5.90
2023-01-19T07:50:43.374Z,5.70
2023-01-19T07:54:25.486Z,5.32
2023-01-19T07:58:07.560Z,6.30
2023-01-19T08:01:49.537Z,5.47
2023-01-19T08:05:33.494Z,5.68
2023-01-19T08:09:15.392Z,5.97
2023-01-19T08:12:58.654Z,5.60
2023-01-19T08:16:40.861Z,5.43
2023-01-19T08:20:23.415Z,6.00
2023-01-19T08:24:05.694Z,5.80
2023-01-19T08:27:48.240Z,5.43
2023-01-19T08:31:30.658Z,6.00
2023-01-19T08:35:12.637Z,6.40
2023-01-19T08:38:54.765Z,6.97
2023-01-19T08:42:36.792Z,7.45
2023-01-19T08:46:21.349Z,7.05
2023-01-19T08:50:03.385Z,6.30
2023-01-19T08:54:18.545Z,6.03
2023-01-19T08:58:02.199Z,5.68
2023-01-19T09:05:49.151Z,5.70
2023-01-19T09:10:02.580Z,5.90
2023-01-19T09:13:44.745Z,5.70
2023-01-19T09:21:34.344Z,5.60
2023-01-19T09:29:30.238Z,5.50
2023-01-19T09:37:29.151Z,5.07
2023-01-19T09:46:03.490Z,5.47
2023-01-19T09:49:52.769Z,5.45
2023-01-19T10:03:05.991Z,5.13
2023-01-19T10:07:28.630Z,4.88
2023-01-19T10:21:04.645Z,4.30
2023-01-19T10:30:00.475Z,4.03
2023-01-19T10:34:30.650Z,3.60
2023-01-19T10:39:00.668Z,4.18
2023-01-19T10:43:31.215Z,3.85
2023-01-19T10:48:02.708Z,3.23
2023-01-19T10:52:32.856Z,3.42
2023-01-19T10:57:02.154Z,3.20
2023-01-19T11:01:32.972Z,3.63
2023-01-19T11:09:30.386Z,3.42
2023-01-19T11:13:55.342Z,3.58
2023-01-19T11:18:26.234Z,3.47
2023-01-19T11:27:28.765Z,3.28
2023-01-19T11:31:57.881Z,3.00
2023-01-19T11:58:00.329Z,3.03
2023-01-19T12:02:24.055Z,2.65
2023-01-19T12:29:24.933Z,3.17
2023-01-19T12:33:57.384Z,2.65
2023-01-19T12:42:21.285Z,3.10
2023-01-19T12:46:19.419Z,2.37
2023-01-19T12:55:18.517Z,2.28
2023-01-19T13:17:52.163Z,2.30
2023-01-19T13:30:22.223Z,1.30
2023-01-19T13:34:46.377Z,1.70
2023-01-19T13:42:48.541Z,1.87
2023-01-19T13:59:31.021Z,2.25
2023-01-19T14:08:31.417Z,2.43
2023-01-19T14:35:35.375Z,1.33
2023-01-19T14:49:04.916Z,1.02
2023-01-19T14:57:00.249Z,1.65
2023-01-19T15:04:59.023Z,1.13
2023-01-19T15:17:46.792Z,1.40
2023-01-19T15:21:48.732Z,1.40
2023-01-19T15:26:15.982Z,1.42
2023-01-19T15:35:15.912Z,1.53
2023-01-19T15:44:17.329Z,1.75
2023-01-19T15:57:47.877Z,1.30
2023-01-19T16:02:17.700Z,1.10
2023-01-19T16:06:47.840Z,2.00
2023-01-19T16:14:49.958Z,2.25
2023-01-19T16:27:41.495Z,2.78
2023-01-19T16:31:23.882Z,3.45
2023-01-19T16:35:06.440Z,3.90
2023-01-19T16:38:56.383Z,3.90
2023-01-19T16:42:39.875Z,4.63
2023-01-19T16:47:09.023Z,3.10
2023-01-19T16:51:02.842Z,5.53
2023-01-19T16:54:44.898Z,5.40
2023-01-19T16:58:26.825Z,5.90
2023-01-19T17:02:14.205Z,6.25
2023-01-19T17:05:56.272Z,5.38
2023-01-19T17:09:38.352Z,3.95
2023-01-19T17:13:20.344Z,2.60
2023-01-19T17:17:02.400Z,2.70
2023-01-19T17:20:44.400Z,2.72
2023-01-19T17:24:26.354Z,3.30
2023-01-19T17:28:08.499Z,4.40
2023-01-19T17:31:51.717Z,5.13
2023-01-19T17:35:34.937Z,6.20
2023-01-19T17:39:18.608Z,6.80
2023-01-19T17:43:00.708Z,5.78
2023-01-19T17:46:42.714Z,6.20
2023-01-19T17:50:24.690Z,6.10
2023-01-19T17:54:06.764Z,4.15
2023-01-19T17:57:48.730Z,4.10
2023-01-19T18:01:32.618Z,4.97
2023-01-19T18:05:14.896Z,4.80
2023-01-19T18:08:58.832Z,3.92
2023-01-19T18:12:40.843Z,3.50
2023-01-19T18:16:25.602Z,3.70
2023-01-19T18:20:08.319Z,4.10
2023-01-19T18:23:51.014Z,5.63
2023-01-19T18:27:33.057Z,9.83
2023-01-19T18:31:17.284Z,8.75
2023-01-19T18:35:03.054Z,14.23
2023-01-19T18:38:45.231Z,11.90
2023-01-19T18:42:27.120Z,12.10
2023-01-19T18:46:09.955Z,12.52
2023-01-19T18:49:51.989Z,11.30
2023-01-19T18:53:33.962Z,10.55
2023-01-19T18:57:17.987Z,10.50
2023-01-19T19:01:01.202Z,9.90
2023-01-19T19:04:43.288Z,7.90
2023-01-19T19:08:25.259Z,7.45
2023-01-19T19:12:07.273Z,7.32
2023-01-19T19:15:49.357Z,8.80
2023-01-19T19:19:31.385Z,8.63
2023-01-19T19:23:13.481Z,7.68
2023-01-19T19:26:55.453Z,6.47
2023-01-19T19:30:39.088Z,5.93
2023-01-19T19:34:21.243Z,5.88
2023-01-19T19:38:03.515Z,5.88
2023-01-19T19:41:45.573Z,5.17
2023-01-19T19:45:27.535Z,4.22
2023-01-19T19:49:09.478Z,4.03
2023-01-19T19:52:51.364Z,4.03
2023-01-19T19:56:34.438Z,4.32
2023-01-19T20:00:16.813Z,4.50
2023-01-19T20:04:04.159Z,4.30
2023-01-19T20:07:49.220Z,6.60
2023-01-19T20:11:31.161Z,6.05
2023-01-19T20:15:13.121Z,6.55
2023-01-19T20:18:55.295Z,6.97
2023-01-19T20:22:37.317Z,5.72
2023-01-19T20:26:23.203Z,6.93
2023-01-19T20:30:07.332Z,6.40
2023-01-19T20:33:51.057Z,6.30
2023-01-19T20:37:33.319Z,9.20
2023-01-19T20:41:15.410Z,12.70
2023-01-19T20:44:57.308Z,11.70
2023-01-19T20:48:39.755Z,9.48
2023-01-19T20:52:22.605Z,10.73
2023-01-19T20:56:11.396Z,7.80
2023-01-19T20:59:53.332Z,7.88
2023-01-19T21:03:36.337Z,9.48
2023-01-19T21:07:18.265Z,10.13
2023-01-19T21:11:00.484Z,10.50
2023-01-19T21:14:43.914Z,9.20
2023-01-19T21:18:28.040Z,9.43
2023-01-19T21:22:09.952Z,9.55
2023-01-19T21:25:57.721Z,7.90
2023-01-19T21:29:40.869Z,8.90
2023-01-19T21:33:23.181Z,7.67
2023-01-19T21:37:05.328Z,6.75
2023-01-19T21:40:47.390Z,7.88
2023-01-19T21:44:29.312Z,7.73
2023-01-19T21:48:11.370Z,7.80
2023-01-19T21:51:53.400Z,6.82
2023-01-19T21:55:35.774Z,6.97
2023-01-19T21:59:20.271Z,6.85
2023-01-19T22:03:04.643Z,8.52
2023-01-19T22:06:47.109Z,8.38
2023-01-19T22:10:29.076Z,7.20
2023-01-19T22:14:11.599Z,7.57
2023-01-19T22:17:53.584Z,6.13
2023-01-19T22:21:35.991Z,6.60
2023-01-19T22:25:18.061Z,4.93
2023-01-19T22:29:01.813Z,4.57
2023-01-19T22:32:43.706Z,4.73
2023-01-19T22:36:28.334Z,3.95
2023-01-19T22:40:11.103Z,4.25
2023-01-19T22:43:55.372Z,3.67
2023-01-19T22:47:37.370Z,3.67
2023-01-19T22:51:20.298Z,3.45
2023-01-19T22:55:02.237Z,3.15
2023-01-19T22:58:45.361Z,3.50
2023-01-19T23:02:27.904Z,3.75
2023-01-19T23:06:12.808Z,3.88
2023-01-19T23:09:54.738Z,4.13
2023-01-19T23:13:36.880Z,4.40
2023-01-19T23:17:18.869Z,4.63
2023-01-19T23:21:05.870Z,4.40
2023-01-19T23:24:47.824Z,4.77
2023-01-19T23:28:30.536Z,4.90
2023-01-19T23:32:12.476Z,5.25
2023-01-19T23:35:57.366Z,4.53
2023-01-19T23:39:39.349Z,5.10
2023-01-19T23:43:21.297Z,5.82
2023-01-19T23:47:03.383Z,5.40
2023-01-19T23:50:45.263Z,4.72
2023-01-19T23:54:27.270Z,5.47
2023-01-19T23:58:09.512Z,5.95
